createdAt,value
2022-11-16T00:01:35.489Z,9.85
2022-11-16T00:04:03.523Z,9.73
2022-11-16T01:29:45.423Z,9.23
2022-11-16T01:32:11.789Z,11.25
2022-11-16T01:34:38.171Z,10.85
2022-11-16T01:37:04.604Z,9.93
2022-11-16T01:39:31.128Z,10.95
2022-11-16T01:41:57.533Z,11.00
2022-11-16T01:44:32.710Z,10.18
2022-11-16T01:47:00.642Z,8.75
2022-11-16T01:49:30.786Z,8.90
2022-11-16T01:52:02.330Z,9.80
2022-11-16T01:54:30.846Z,9.20
2022-11-16T01:57:01.669Z,12.82
2022-11-16T01:59:29.880Z,9.90
2022-11-16T02:01:56.823Z,9.85
2022-11-16T02:04:23.252Z,9.13
2022-11-16T02:07:11.463Z,11.47
2022-11-16T02:10:02.635Z,8.13
2022-11-16T02:12:57.354Z,8.65
2022-11-16T02:15:47.870Z,7.45
2022-11-16T02:18:42.811Z,10.35
2022-11-16T02:21:20.715Z,12.93
2022-11-16T02:23:53.307Z,9.40
2022-11-16T02:26:45.556Z,8.52
2022-11-16T02:29:32.698Z,8.70
2022-11-16T02:32:02.294Z,8.98
2022-11-16T02:34:34.372Z,7.17
2022-11-16T02:37:04.241Z,8.25
2022-11-16T02:39:33.263Z,11.50
2022-11-16T02:42:02.568Z,9.65
2022-11-16T02:44:33.506Z,7.63
2022-11-16T02:47:05.542Z,7.70
2022-11-16T02:49:36.474Z,9.30
2022-11-16T02:52:04.261Z,7.80
2022-11-16T02:54:30.689Z,8.48
2022-11-16T02:57:03.016Z,8.38
2022-11-16T02:59:40.170Z,7.80
2022-11-16T03:02:17.279Z,8.00
2022-11-16T03:04:47.991Z,8.27
2022-11-16T03:07:18.709Z,9.45
2022-11-16T03:09:48.799Z,8.30
2022-11-16T03:12:20.085Z,7.73
2022-11-16T03:14:54.703Z,7.63
2022-11-16T03:17:34.036Z,12.20
2022-11-16T03:20:12.842Z,7.95
2022-11-16T03:22:44.082Z,8.45
2022-11-16T03:25:13.896Z,6.87
2022-11-16T03:27:56.498Z,8.40
2022-11-16T03:30:26.030Z,7.82
2022-11-16T03:33:01.532Z,7.93
2022-11-16T03:35:38.348Z,7.55
2022-11-16T03:38:06.257Z,7.43
2022-11-16T03:40:35.780Z,8.27
2022-11-16T03:43:04.760Z,8.48
2022-11-16T03:45:31.881Z,6.53
2022-11-16T03:47:58.653Z,7.40
2022-11-16T03:50:25.575Z,8.37
2022-11-16T03:52:52.000Z,7.38
2022-11-16T03:55:18.746Z,6.93
2022-11-16T03:57:45.189Z,10.00
2022-11-16T04:00:12.668Z,8.57
2022-11-16T04:02:38.993Z,8.90
2022-11-16T04:05:24.433Z,10.52
2022-11-16T04:08:09.168Z,7.70
2022-11-16T04:10:53.994Z,9.77
2022-11-16T04:13:46.434Z,8.98
2022-11-16T04:16:31.177Z,9.70
2022-11-16T04:19:15.869Z,9.63
2022-11-16T04:22:05.726Z,10.38
2022-11-16T04:24:36.921Z,7.72
2022-11-16T04:27:26.689Z,9.18
2022-11-16T04:29:55.227Z,9.00
2022-11-16T04:32:40.078Z,7.97
2022-11-16T04:35:25.305Z,8.05
2022-11-16T04:37:54.751Z,9.20
2022-11-16T04:40:23.723Z,7.30
2022-11-16T04:42:54.862Z,7.47
2022-11-16T04:45:51.071Z,7.07
2022-11-16T04:48:19.425Z,6.70
2022-11-16T04:50:47.176Z,8.30
2022-11-16T04:53:13.997Z,5.68
2022-11-16T04:55:40.356Z,6.13
2022-11-16T04:58:06.906Z,7.38
2022-11-16T05:00:33.415Z,10.15
2022-11-16T05:03:01.852Z,5.75
2022-11-16T05:05:28.656Z,6.75
2022-11-16T05:07:55.873Z,6.10
2022-11-16T05:10:22.261Z,6.35
2022-11-16T05:12:48.922Z,7.80
2022-11-16T05:15:17.594Z,4.97
2022-11-16T05:17:44.194Z,6.18
2022-11-16T05:20:30.003Z,6.37
2022-11-16T05:22:58.420Z,4.72
2022-11-16T05:25:25.695Z,5.57
2022-11-16T05:27:52.180Z,6.00
2022-11-16T05:30:18.761Z,6.63
2022-11-16T05:32:45.265Z,6.70
2022-11-16T05:35:11.844Z,5.32
2022-11-16T05:37:38.494Z,6.45
2022-11-16T05:40:05.759Z,6.32
2022-11-16T05:42:32.120Z,7.00
2022-11-16T05:44:58.591Z,7.77
2022-11-16T05:47:25.066Z,6.22
2022-11-16T05:49:51.593Z,6.72
2022-11-16T05:52:17.983Z,7.70
2022-11-16T05:54:44.591Z,6.18
2022-11-16T05:57:11.245Z,8.40
2022-11-16T05:59:37.858Z,7.07
2022-11-16T06:02:04.785Z,7.93
2022-11-16T06:04:31.212Z,5.72
2022-11-16T06:07:00.861Z,5.90
2022-11-16T06:09:27.461Z,9.80
2022-11-16T06:11:53.866Z,6.65
2022-11-16T06:14:20.506Z,7.05
2022-11-16T06:16:47.055Z,8.45
2022-11-16T06:19:13.495Z,8.27
2022-11-16T06:21:40.293Z,9.97
2022-11-16T06:24:09.203Z,9.02
2022-11-16T06:26:36.616Z,9.10
2022-11-16T06:29:04.063Z,8.85
2022-11-16T06:31:30.537Z,10.65
2022-11-16T06:33:57.114Z,10.67
2022-11-16T06:36:23.523Z,10.32
2022-11-16T06:38:50.816Z,11.18
2022-11-16T06:41:17.538Z,11.00
2022-11-16T06:43:43.996Z,10.30
2022-11-16T06:46:10.498Z,11.97
2022-11-16T06:48:37.279Z,12.70
2022-11-16T06:51:04.138Z,14.30
2022-11-16T06:53:30.782Z,9.73
2022-11-16T06:56:02.019Z,13.75
2022-11-16T06:58:31.513Z,12.87
2022-11-16T07:01:04.919Z,14.02
2022-11-16T07:03:31.615Z,11.18
2022-11-16T07:05:57.978Z,13.05
2022-11-16T07:21:50.718Z,14.20
2022-11-16T07:24:17.050Z,10.80
2022-11-16T07:26:43.459Z,11.88
2022-11-16T07:29:09.814Z,9.43
2022-11-16T07:31:36.152Z,12.80
2022-11-16T07:34:02.495Z,12.43
2022-11-16T07:36:28.865Z,10.23
2022-11-16T07:38:56.172Z,10.48
2022-11-16T07:41:22.585Z,8.15
2022-11-16T07:43:52.941Z,8.43
2022-11-16T07:46:46.041Z,7.57
2022-11-16T07:49:11.379Z,8.07
2022-11-16T07:51:38.222Z,10.50
2022-11-16T07:54:04.627Z,4.70
2022-11-16T07:56:30.957Z,5.57
2022-11-16T07:58:57.328Z,5.85
2022-11-16T08:01:23.787Z,5.37
2022-11-16T08:03:53.490Z,4.30
2022-11-16T08:06:28.576Z,9.77
2022-11-16T08:08:58.313Z,6.20
2022-11-16T08:11:25.814Z,5.95
2022-11-16T08:13:52.262Z,5.40
2022-11-16T08:16:21.163Z,3.13
2022-11-16T08:18:48.308Z,4.00
2022-11-16T08:21:17.262Z,4.45
2022-11-16T08:23:47.131Z,4.88
2022-11-16T08:26:16.198Z,6.53
2022-11-16T08:28:48.120Z,6.97
2022-11-16T08:31:18.210Z,4.47
2022-11-16T08:33:44.574Z,4.57
2022-11-16T08:36:17.052Z,2.97
2022-11-16T08:38:48.067Z,3.70
2022-11-16T08:41:14.586Z,5.13
2022-11-16T08:43:42.364Z,5.40
2022-11-16T08:46:10.460Z,9.02
2022-11-16T08:48:37.689Z,5.45
2022-11-16T08:51:17.481Z,3.53
2022-11-16T08:53:44.917Z,5.72
2022-11-16T08:56:15.219Z,9.23
2022-11-16T08:58:43.561Z,5.78
2022-11-16T09:01:12.393Z,6.50
2022-11-16T09:03:39.058Z,3.73
2022-11-16T09:06:06.969Z,5.22
2022-11-16T09:08:34.649Z,7.20
2022-11-16T09:11:05.253Z,6.18
2022-11-16T09:13:31.859Z,4.32
2022-11-16T09:16:00.097Z,5.07
2022-11-16T09:18:27.885Z,5.00
2022-11-16T09:20:54.383Z,6.07
2022-11-16T09:23:25.251Z,5.55
2022-11-16T09:25:52.552Z,7.03
2022-11-16T09:28:19.582Z,4.60
2022-11-16T09:30:48.461Z,6.25
2022-11-16T09:33:14.816Z,6.00
2022-11-16T09:35:41.207Z,6.35
2022-11-16T09:38:09.785Z,5.82
2022-11-16T09:40:42.690Z,5.43
2022-11-16T09:43:48.671Z,4.80
2022-11-16T09:46:56.864Z,5.85
2022-11-16T09:49:33.478Z,3.88
2022-11-16T09:52:05.045Z,9.50
2022-11-16T09:54:36.649Z,4.30
2022-11-16T09:57:12.209Z,6.25
2022-11-16T09:59:47.789Z,7.93
2022-11-16T10:02:36.736Z,3.28
2022-11-16T10:05:15.556Z,3.30
2022-11-16T10:07:52.189Z,5.83
2022-11-16T10:10:44.228Z,2.33
2022-11-16T10:13:26.521Z,3.50
2022-11-16T10:16:04.668Z,7.30
2022-11-16T10:18:52.588Z,5.57
2022-11-16T10:21:40.022Z,3.90
2022-11-16T10:24:23.387Z,7.07
2022-11-16T10:27:05.984Z,5.10
2022-11-16T10:29:48.103Z,2.28
2022-11-16T10:32:21.847Z,3.22
2022-11-16T10:34:53.653Z,3.13
2022-11-16T10:37:21.793Z,4.35
2022-11-16T10:39:50.751Z,4.35
2022-11-16T10:42:30.529Z,5.15
2022-11-16T10:45:15.051Z,8.38
2022-11-16T10:48:20.729Z,6.87
2022-11-16T10:50:49.934Z,4.97
2022-11-16T10:53:27.300Z,5.43
2022-11-16T10:56:39.659Z,5.15
2022-11-16T10:59:12.153Z,5.63
2022-11-16T11:01:41.497Z,2.67
2022-11-16T11:04:14.063Z,3.72
2022-11-16T11:06:41.367Z,6.55
2022-11-16T11:09:15.050Z,5.43
2022-11-16T11:11:59.780Z,10.18
2022-11-16T11:14:26.324Z,4.27
2022-11-16T11:16:53.704Z,4.20
2022-11-16T11:19:25.043Z,5.28
2022-11-16T11:21:57.241Z,2.58
2022-11-16T11:27:11.209Z,7.30
2022-11-16T11:29:42.052Z,3.53
2022-11-16T11:32:20.752Z,3.40
2022-11-16T11:34:52.919Z,5.18
2022-11-16T11:37:23.153Z,7.05
2022-11-16T11:40:05.268Z,2.90
2022-11-16T11:42:31.633Z,5.75
2022-11-16T11:45:08.971Z,5.88
2022-11-16T11:48:00.278Z,6.40
2022-11-16T11:50:36.123Z,5.22
2022-11-16T11:53:21.052Z,10.07
2022-11-16T11:55:49.416Z,2.53
2022-11-16T11:58:19.217Z,5.93
2022-11-16T12:00:55.992Z,3.78
2022-11-16T12:03:40.300Z,5.03
2022-11-16T12:06:09.120Z,3.20
2022-11-16T12:09:02.616Z,2.67
2022-11-16T12:11:43.866Z,9.00
2022-11-16T12:14:23.789Z,4.25
2022-11-16T12:17:10.593Z,6.13
2022-11-16T12:20:01.232Z,4.17
2022-11-16T12:22:53.847Z,6.35
2022-11-16T12:25:46.280Z,6.90
2022-11-16T12:28:40.753Z,5.07
2022-11-16T12:31:38.271Z,4.78
2022-11-16T12:34:30.268Z,3.50
2022-11-16T12:37:07.452Z,5.15
2022-11-16T12:39:39.640Z,5.00
2022-11-16T12:42:30.541Z,3.15
2022-11-16T12:45:18.808Z,5.63
2022-11-16T12:48:07.526Z,4.40
2022-11-16T12:50:55.212Z,3.35
2022-11-16T12:53:49.057Z,4.10
2022-11-16T12:56:36.783Z,5.45
2022-11-16T12:59:15.052Z,1.90
2022-11-16T13:01:56.246Z,3.27
2022-11-16T13:04:35.216Z,3.90
2022-11-16T13:07:11.111Z,5.15
2022-11-16T13:09:41.787Z,3.13
2022-11-16T13:12:17.359Z,4.18
2022-11-16T13:14:47.680Z,4.47
2022-11-16T13:17:36.936Z,3.72
2022-11-16T13:20:18.453Z,4.55
2022-11-16T13:22:55.650Z,3.33
2022-11-16T13:28:33.842Z,2.07
2022-11-16T13:31:21.479Z,3.63
2022-11-16T13:33:53.392Z,2.10
2022-11-16T13:36:31.786Z,4.68
2022-11-16T13:39:01.338Z,1.05
2022-11-16T13:41:31.900Z,2.23
2022-11-16T13:43:59.098Z,4.53
2022-11-16T13:46:56.313Z,2.05
2022-11-16T13:49:36.763Z,3.28
2022-11-16T13:52:22.637Z,2.70
2022-11-16T13:54:55.660Z,3.10
2022-11-16T13:57:32.668Z,1.83
2022-11-16T14:00:02.362Z,4.18
2022-11-16T14:02:31.058Z,6.18
2022-11-16T14:05:14.750Z,4.68
2022-11-16T14:07:49.615Z,4.10
2022-11-16T14:10:34.311Z,5.05
2022-11-16T14:13:01.708Z,2.92
2022-11-16T14:15:38.845Z,5.70
2022-11-16T14:18:08.655Z,1.85
2022-11-16T14:20:38.246Z,3.73
2022-11-16T14:23:29.676Z,3.28
2022-11-16T14:26:32.451Z,2.17
2022-11-16T14:29:22.149Z,3.92
2022-11-16T14:31:52.609Z,4.13
2022-11-16T14:34:31.892Z,3.93
2022-11-16T14:37:02.124Z,4.75
2022-11-16T14:39:33.822Z,2.60
2022-11-16T14:42:07.755Z,3.80
2022-11-16T14:44:38.832Z,3.05
2022-11-16T14:47:15.870Z,6.43
2022-11-16T14:49:44.697Z,5.43
2022-11-16T14:52:14.350Z,2.28
2022-11-16T14:54:52.716Z,4.47
2022-11-16T14:57:22.259Z,3.85
2022-11-16T14:59:49.269Z,2.67
2022-11-16T15:02:27.283Z,3.72
2022-11-16T15:04:54.542Z,3.97
2022-11-16T15:07:26.146Z,4.43
2022-11-16T15:09:55.695Z,4.30
2022-11-16T15:12:41.326Z,2.07
2022-11-16T15:15:15.866Z,2.55
2022-11-16T15:17:52.066Z,1.77
2022-11-16T15:20:23.436Z,4.82
2022-11-16T15:22:56.746Z,3.05
2022-11-16T15:25:42.901Z,2.83
2022-11-16T15:28:26.018Z,2.45
2022-11-16T15:30:59.647Z,4.55
2022-11-16T15:33:33.109Z,3.08
2022-11-16T15:35:59.809Z,5.28
2022-11-16T15:38:28.155Z,5.13
2022-11-16T15:40:57.690Z,2.58
2022-11-16T15:43:30.554Z,2.97
2022-11-16T15:45:57.832Z,3.63
2022-11-16T15:48:26.347Z,3.17
2022-11-16T15:51:13.797Z,10.63
2022-11-16T15:53:46.263Z,4.68
2022-11-16T15:56:20.087Z,5.80
2022-11-16T15:58:47.436Z,6.65
2022-11-16T16:01:15.726Z,6.38
2022-11-16T16:04:02.024Z,4.67
2022-11-16T16:06:45.427Z,6.28
2022-11-16T16:09:18.400Z,4.78
2022-11-16T16:11:44.790Z,7.80
2022-11-16T16:14:25.449Z,6.90
2022-11-16T16:16:54.834Z,7.53
2022-11-16T16:19:35.709Z,5.18
2022-11-16T16:22:03.728Z,3.70
2022-11-16T16:24:46.773Z,2.75
2022-11-16T16:27:28.593Z,5.15
2022-11-16T16:30:02.300Z,6.07
2022-11-16T16:32:30.120Z,3.88
2022-11-16T16:34:58.599Z,5.32
2022-11-16T16:37:32.892Z,6.20
2022-11-16T16:40:00.248Z,4.38
2022-11-16T16:42:26.707Z,6.63
2022-11-16T16:44:53.539Z,4.43
2022-11-16T16:47:20.746Z,9.10
2022-11-16T16:49:48.392Z,7.15
2022-11-16T16:52:14.913Z,7.30
2022-11-16T16:54:41.620Z,9.67
2022-11-16T16:57:15.796Z,3.95
2022-11-16T16:59:45.289Z,8.35
2022-11-16T17:02:12.877Z,7.60
2022-11-16T17:04:39.273Z,6.50
2022-11-16T17:07:05.864Z,6.20
2022-11-16T17:09:32.436Z,6.30
2022-11-16T17:11:58.839Z,6.18
2022-11-16T17:14:25.319Z,4.60
2022-11-16T17:16:52.155Z,6.93
2022-11-16T17:19:19.477Z,3.63
2022-11-16T17:21:45.899Z,7.07
2022-11-16T17:24:12.741Z,5.35
2022-11-16T17:26:40.468Z,5.07
2022-11-16T17:29:06.963Z,14.10
2022-11-16T17:31:33.370Z,5.07
2022-11-16T17:33:59.748Z,7.63
2022-11-16T17:36:26.080Z,3.03
2022-11-16T17:38:52.471Z,3.92
2022-11-16T17:41:21.848Z,4.53
2022-11-16T17:43:51.210Z,4.80
2022-11-16T17:46:19.662Z,4.15
2022-11-16T17:48:47.766Z,4.78
2022-11-16T17:51:17.378Z,5.38
2022-11-16T17:53:44.256Z,5.60
2022-11-16T17:56:12.175Z,5.73
2022-11-16T17:58:38.624Z,4.82
2022-11-16T18:01:05.654Z,5.35
2022-11-16T18:03:32.363Z,6.88
2022-11-16T18:06:01.685Z,5.03
2022-11-16T18:08:28.177Z,3.07
2022-11-16T18:10:54.538Z,4.43
2022-11-16T18:13:20.860Z,6.65
2022-11-16T18:15:47.283Z,4.03
2022-11-16T18:18:13.652Z,5.35
2022-11-16T18:20:40.069Z,4.47
2022-11-16T18:23:06.397Z,5.55
2022-11-16T18:25:34.477Z,6.57
2022-11-16T18:28:00.824Z,6.20
2022-11-16T18:30:27.159Z,5.88
2022-11-16T18:32:53.978Z,5.90
2022-11-16T18:35:20.415Z,7.43
2022-11-16T18:37:46.741Z,4.65
2022-11-16T18:40:13.634Z,4.68
2022-11-16T18:42:41.525Z,2.88
2022-11-16T18:45:08.424Z,6.83
2022-11-16T18:47:34.800Z,3.00
2022-11-16T18:50:01.216Z,6.88
2022-11-16T18:52:27.574Z,6.75
2022-11-16T18:54:53.991Z,11.23
2022-11-16T18:59:46.777Z,5.18
2022-11-16T19:02:13.173Z,6.57
2022-11-16T19:04:42.814Z,4.15
2022-11-16T19:07:09.235Z,5.00
2022-11-16T19:09:39.349Z,3.47
2022-11-16T19:12:08.540Z,4.65
2022-11-16T19:14:34.983Z,6.32
2022-11-16T19:17:05.227Z,4.43
2022-11-16T19:19:34.225Z,5.32
2022-11-16T19:22:00.792Z,4.50
2022-11-16T19:24:29.697Z,3.55
2022-11-16T19:26:56.244Z,5.40
2022-11-16T19:29:22.614Z,4.43
2022-11-16T19:31:52.017Z,6.13
2022-11-16T19:34:18.396Z,8.70
2022-11-16T19:36:44.999Z,6.03
2022-11-16T19:39:11.474Z,3.65
2022-11-16T19:41:37.892Z,3.65
2022-11-16T19:44:04.561Z,6.35
2022-11-16T19:46:32.485Z,4.10
2022-11-16T19:48:59.601Z,5.25
2022-11-16T19:51:31.366Z,3.38
2022-11-16T19:54:02.383Z,3.85
2022-11-16T19:56:28.836Z,4.28
2022-11-16T19:58:55.231Z,4.63
2022-11-16T20:01:27.869Z,4.80
2022-11-16T20:03:56.812Z,4.75
2022-11-16T20:06:31.632Z,11.35
2022-11-16T20:09:01.005Z,3.75
2022-11-16T20:11:29.561Z,3.83
2022-11-16T20:13:57.571Z,4.65
2022-11-16T20:16:26.860Z,4.60
2022-11-16T20:18:54.317Z,4.53
2022-11-16T20:21:26.241Z,3.22
2022-11-16T20:23:53.717Z,11.20
2022-11-16T20:26:21.765Z,4.13
2022-11-16T20:28:51.083Z,3.72
2022-11-16T20:31:20.002Z,2.63
2022-11-16T20:33:46.847Z,3.75
2022-11-16T20:36:13.216Z,5.40
2022-11-16T20:38:39.972Z,4.90
2022-11-16T20:41:11.749Z,3.85
2022-11-16T20:43:39.410Z,5.97
2022-11-16T20:46:16.939Z,3.33
2022-11-16T20:48:44.171Z,4.23
2022-11-16T20:51:13.527Z,7.53
2022-11-16T20:53:40.172Z,4.75
2022-11-16T20:56:09.753Z,5.55
2022-11-16T20:58:36.469Z,6.03
2022-11-16T21:01:05.572Z,5.20
2022-11-16T21:03:32.565Z,3.45
2022-11-16T21:05:59.306Z,4.88
2022-11-16T21:08:26.630Z,4.78
2022-11-16T21:10:53.609Z,5.15
2022-11-16T21:13:38.719Z,4.47
2022-11-16T21:16:08.611Z,3.53
2022-11-16T21:18:35.080Z,5.25
2022-11-16T21:21:03.265Z,4.47
2022-11-16T21:23:31.644Z,3.70
2022-11-16T21:26:11.154Z,6.43
2022-11-16T21:28:38.546Z,6.10
2022-11-16T21:31:07.397Z,6.82
2022-11-16T21:33:34.266Z,9.80
2022-11-16T21:36:06.785Z,6.10
2022-11-16T21:38:34.353Z,6.27
2022-11-16T21:41:01.548Z,6.15
2022-11-16T21:43:28.050Z,3.97
2022-11-16T21:46:02.067Z,5.03
2022-11-16T21:48:30.444Z,4.40
2022-11-16T21:51:01.623Z,6.00
2022-11-16T21:53:28.729Z,6.65
2022-11-16T21:55:55.124Z,5.97
2022-11-16T21:58:21.668Z,6.18
2022-11-16T22:00:48.150Z,6.00
2022-11-16T22:03:15.188Z,3.50
2022-11-16T22:05:59.909Z,5.45
2022-11-16T22:08:26.444Z,5.18
2022-11-16T22:10:53.575Z,5.18
2022-11-16T22:13:20.594Z,4.85
2022-11-16T22:15:47.354Z,5.57
2022-11-16T22:18:13.787Z,2.63
2022-11-16T22:20:40.367Z,4.85
2022-11-16T22:23:06.721Z,4.85
2022-11-16T22:25:33.288Z,3.25
2022-11-16T22:28:19.614Z,4.87
2022-11-16T22:30:51.357Z,3.95
2022-11-16T22:33:18.448Z,4.95
2022-11-16T22:35:46.649Z,3.42
2022-11-16T22:38:13.060Z,4.13
2022-11-16T22:40:39.402Z,3.60
2022-11-16T22:43:05.719Z,3.15
2022-11-16T22:45:32.109Z,4.57
2022-11-16T22:47:58.624Z,4.03
2022-11-16T22:50:25.106Z,5.25
2022-11-16T22:52:51.530Z,5.90
2022-11-16T22:55:17.873Z,4.53
2022-11-16T22:57:44.356Z,4.40
2022-11-16T23:00:12.243Z,4.85
2022-11-16T23:02:38.573Z,5.80
2022-11-16T23:05:05.288Z,3.37
2022-11-16T23:07:31.673Z,4.68
2022-11-16T23:09:58.092Z,3.58
2022-11-16T23:12:43.095Z,5.25
2022-11-16T23:15:30.817Z,3.00
2022-11-16T23:17:57.666Z,3.87
2022-11-16T23:20:42.411Z,4.15
2022-11-16T23:23:37.673Z,5.18
2022-11-16T23:26:30.256Z,3.92
2022-11-16T23:28:56.653Z,5.93
2022-11-16T23:31:22.995Z,4.03
2022-11-16T23:33:49.421Z,5.18
2022-11-16T23:36:15.929Z,5.47
2022-11-16T23:38:42.357Z,3.95
2022-11-16T23:41:27.433Z,3.63
2022-11-16T23:43:59.504Z,3.23
2022-11-16T23:46:27.740Z,5.22
2022-11-16T23:48:54.409Z,2.90
2022-11-16T23:51:23.225Z,5.45
2022-11-16T23:53:51.487Z,3.97
2022-11-16T23:56:19.015Z,4.43
2022-11-16T23:58:46.014Z,3.80
